createdAt,value
2022-11-15T00:01:18.074Z,8.10
2022-11-15T00:03:44.790Z,8.10
2022-11-15T00:06:11.445Z,8.10
2022-11-15T00:08:38.305Z,8.10
2022-11-15T00:11:05.187Z,8.10
2022-11-15T00:13:32.019Z,8.10
2022-11-15T00:15:59.138Z,8.10
2022-11-15T00:18:25.808Z,8.10
2022-11-15T00:20:52.684Z,8.10
2022-11-15T00:23:19.343Z,8.10
2022-11-15T00:25:46.200Z,8.10
2022-11-15T00:28:12.865Z,8.10
2022-11-15T00:30:39.728Z,8.10
2022-11-15T00:33:06.367Z,8.10
2022-11-15T00:35:33.024Z,8.10
2022-11-15T00:37:59.701Z,8.10
2022-11-15T00:40:26.365Z,8.10
2022-11-15T00:42:53.250Z,8.10
2022-11-15T00:45:19.922Z,8.10
2022-11-15T00:47:46.592Z,8.10
2022-11-15T00:50:15.306Z,8.10
2022-11-15T00:52:42.537Z,8.10
2022-11-15T00:55:09.198Z,8.10
2022-11-15T00:57:36.277Z,8.10
2022-11-15T01:00:02.963Z,8.10
2022-11-15T01:02:29.609Z,8.10
2022-11-15T01:04:56.275Z,8.10
2022-11-15T01:07:22.978Z,8.10
2022-11-15T01:09:49.943Z,8.10
2022-11-15T01:12:16.589Z,8.10
2022-11-15T01:14:43.440Z,8.10
2022-11-15T01:17:10.085Z,8.00
2022-11-15T01:19:36.738Z,8.10
2022-11-15T01:22:03.381Z,8.10
2022-11-15T01:24:30.050Z,8.00
2022-11-15T01:26:56.701Z,8.10
2022-11-15T01:29:23.349Z,8.00
2022-11-15T01:31:49.999Z,8.00
2022-11-15T01:34:16.669Z,8.00
2022-11-15T01:36:43.317Z,8.00
2022-11-15T01:39:10.164Z,8.10
2022-11-15T01:41:36.800Z,8.00
2022-11-15T01:44:03.661Z,8.00
2022-11-15T01:46:30.317Z,8.00
2022-11-15T01:48:56.978Z,8.00
2022-11-15T01:51:23.846Z,8.00
2022-11-15T01:53:50.500Z,8.00
2022-11-15T01:56:17.363Z,8.00
2022-11-15T01:58:44.250Z,8.00
2022-11-15T02:01:10.942Z,8.00
2022-11-15T02:03:37.820Z,8.00
2022-11-15T02:06:04.452Z,8.00
2022-11-15T02:08:31.113Z,8.00
2022-11-15T02:10:57.772Z,8.00
2022-11-15T02:13:24.442Z,8.00
2022-11-15T02:15:51.116Z,8.00
2022-11-15T02:18:17.779Z,8.00
2022-11-15T02:20:45.043Z,8.00
2022-11-15T02:23:11.683Z,8.00
2022-11-15T02:25:38.536Z,8.00
2022-11-15T02:28:05.371Z,8.00
2022-11-15T02:30:32.049Z,8.00
2022-11-15T02:32:58.699Z,8.00
2022-11-15T02:35:25.364Z,8.00
2022-11-15T02:37:51.981Z,8.00
2022-11-15T02:40:18.619Z,8.00
2022-11-15T02:42:45.449Z,8.00
2022-11-15T02:45:12.325Z,8.00
2022-11-15T02:47:38.984Z,8.00
2022-11-15T02:50:05.601Z,8.00
2022-11-15T02:52:32.233Z,8.00
2022-11-15T02:54:58.861Z,8.00
2022-11-15T02:57:25.495Z,8.00
2022-11-15T02:59:52.353Z,8.00
2022-11-15T03:02:19.003Z,8.00
2022-11-15T03:04:45.645Z,8.00
2022-11-15T03:07:12.325Z,8.00
2022-11-15T03:09:39.007Z,8.00
2022-11-15T03:12:05.629Z,8.00
2022-11-15T03:14:32.470Z,8.00
2022-11-15T03:16:59.301Z,8.00
2022-11-15T03:19:25.916Z,8.00
2022-11-15T03:21:52.560Z,8.00
2022-11-15T03:24:24.729Z,8.00
2022-11-15T03:26:52.557Z,8.00
2022-11-15T03:29:19.213Z,8.00
2022-11-15T03:31:50.002Z,7.90
2022-11-15T03:34:17.914Z,8.00
2022-11-15T03:36:44.547Z,8.00
2022-11-15T03:39:14.054Z,8.00
2022-11-15T03:41:42.954Z,8.00
2022-11-15T03:44:09.583Z,8.00
2022-11-15T03:46:36.217Z,8.00
2022-11-15T03:49:03.434Z,8.00
2022-11-15T03:51:30.068Z,8.00
2022-11-15T03:53:56.713Z,8.00
2022-11-15T03:56:23.352Z,8.00
2022-11-15T03:58:49.992Z,7.90
2022-11-15T04:01:16.873Z,7.90
2022-11-15T04:03:43.510Z,8.00
2022-11-15T04:06:10.149Z,8.00
2022-11-15T04:08:36.783Z,8.00
2022-11-15T04:11:03.414Z,8.00
2022-11-15T04:13:30.385Z,8.00
2022-11-15T04:15:57.247Z,7.90
2022-11-15T04:18:23.874Z,8.00
2022-11-15T04:20:50.705Z,8.00
2022-11-15T04:23:17.328Z,8.00
2022-11-15T04:25:43.936Z,7.90
2022-11-15T04:28:10.776Z,7.90
2022-11-15T04:30:37.394Z,8.00
2022-11-15T04:33:04.264Z,7.90
2022-11-15T04:35:31.112Z,7.90
2022-11-15T04:37:57.733Z,8.00
2022-11-15T04:40:24.353Z,7.90
2022-11-15T04:42:51.181Z,7.90
2022-11-15T04:45:17.814Z,7.90
2022-11-15T04:47:44.673Z,7.90
2022-11-15T04:50:11.527Z,8.00
2022-11-15T04:52:38.384Z,7.90
2022-11-15T04:55:08.186Z,7.90
2022-11-15T04:57:35.304Z,8.00
2022-11-15T05:00:02.702Z,7.90
2022-11-15T05:02:29.312Z,8.00
2022-11-15T05:04:56.137Z,8.00
2022-11-15T05:07:22.819Z,8.00
2022-11-15T05:09:49.530Z,7.90
2022-11-15T05:12:16.169Z,7.90
2022-11-15T05:14:43.004Z,8.00
2022-11-15T05:17:09.869Z,8.00
2022-11-15T05:19:36.713Z,7.90
2022-11-15T05:22:03.348Z,8.00
2022-11-15T05:24:29.990Z,7.90
2022-11-15T05:26:56.632Z,7.90
2022-11-15T05:29:23.267Z,7.90
2022-11-15T05:31:49.897Z,8.00
2022-11-15T05:34:16.522Z,8.00
2022-11-15T05:36:43.158Z,8.00
2022-11-15T05:39:09.796Z,8.00
2022-11-15T05:41:36.649Z,8.00
2022-11-15T05:44:03.308Z,8.00
2022-11-15T05:46:29.936Z,7.90
2022-11-15T05:48:56.555Z,8.00
2022-11-15T05:51:23.197Z,8.00
2022-11-15T05:53:49.837Z,8.00
2022-11-15T05:56:16.683Z,8.00
2022-11-15T05:58:43.527Z,8.00
2022-11-15T06:01:10.161Z,8.00
2022-11-15T06:03:36.795Z,8.00
2022-11-15T06:06:03.419Z,8.00
2022-11-15T06:08:30.262Z,8.00
2022-11-15T06:10:56.877Z,8.00
2022-11-15T06:13:23.724Z,8.00
2022-11-15T06:15:50.335Z,8.00
2022-11-15T06:18:16.958Z,8.00
2022-11-15T06:20:43.602Z,8.00
2022-11-15T06:23:10.305Z,8.00
2022-11-15T06:25:36.921Z,8.00
2022-11-15T06:28:03.566Z,8.00
2022-11-15T06:30:30.440Z,8.00
2022-11-15T06:32:57.077Z,8.00
2022-11-15T06:35:23.902Z,8.00
2022-11-15T06:37:50.516Z,8.00
2022-11-15T06:40:17.149Z,8.00
2022-11-15T06:42:43.785Z,8.00
2022-11-15T06:45:10.417Z,8.00
2022-11-15T06:47:37.056Z,8.00
2022-11-15T06:50:03.698Z,8.00
2022-11-15T06:52:30.336Z,8.00
2022-11-15T06:54:56.952Z,8.00
2022-11-15T06:57:23.588Z,8.00
2022-11-15T06:59:50.212Z,8.00
2022-11-15T07:02:17.049Z,8.00
2022-11-15T07:04:43.670Z,8.00
2022-11-15T07:07:10.572Z,8.00
2022-11-15T07:09:37.278Z,8.00
2022-11-15T07:12:07.753Z,8.00
2022-11-15T07:14:34.611Z,8.00
2022-11-15T07:17:01.261Z,8.00
2022-11-15T07:19:27.903Z,8.00
2022-11-15T07:21:54.529Z,8.00
2022-11-15T07:24:21.168Z,8.00
2022-11-15T07:26:47.789Z,8.00
2022-11-15T07:29:14.636Z,8.00
2022-11-15T07:31:41.264Z,8.00
2022-11-15T07:34:07.902Z,8.00
2022-11-15T07:36:34.737Z,8.00
2022-11-15T07:39:01.352Z,8.00
2022-11-15T07:41:27.974Z,8.00
2022-11-15T07:43:54.627Z,8.00
2022-11-15T07:46:21.264Z,8.00
2022-11-15T07:48:48.114Z,8.00
2022-11-15T07:51:14.898Z,8.00
2022-11-15T07:53:41.609Z,8.00
2022-11-15T07:56:08.493Z,8.10
2022-11-15T07:58:35.340Z,8.10
2022-11-15T08:01:02.083Z,8.00
2022-11-15T08:03:29.227Z,8.00
2022-11-15T08:05:56.317Z,8.00
2022-11-15T08:08:23.150Z,8.10
2022-11-15T08:10:49.772Z,8.00
2022-11-15T08:13:16.723Z,8.00
2022-11-15T08:15:43.371Z,8.00
2022-11-15T08:18:10.215Z,8.00
2022-11-15T08:20:36.853Z,8.00
2022-11-15T08:23:03.692Z,8.10
2022-11-15T08:25:30.338Z,8.10
2022-11-15T08:27:56.966Z,8.10
2022-11-15T08:30:23.797Z,8.10
2022-11-15T08:32:50.431Z,8.10
2022-11-15T08:35:17.068Z,8.10
2022-11-15T08:37:43.683Z,8.10
2022-11-15T08:40:10.517Z,8.10
2022-11-15T08:42:37.382Z,8.10
2022-11-15T08:45:04.004Z,8.10
2022-11-15T08:47:30.644Z,8.10
2022-11-15T08:49:57.266Z,8.10
2022-11-15T08:52:23.888Z,8.10
2022-11-15T08:54:50.722Z,8.10
2022-11-15T08:57:17.570Z,8.10
2022-11-15T08:59:44.406Z,8.10
2022-11-15T09:02:11.062Z,8.10
2022-11-15T09:04:37.729Z,8.10
2022-11-15T09:07:04.440Z,8.10
2022-11-15T09:09:31.332Z,8.10
2022-11-15T09:12:01.397Z,8.10
2022-11-15T09:14:29.477Z,8.10
2022-11-15T09:16:56.339Z,8.10
2022-11-15T09:19:22.995Z,8.10
2022-11-15T09:21:49.640Z,8.10
2022-11-15T09:24:16.279Z,8.10
2022-11-15T09:26:42.896Z,8.10
2022-11-15T09:29:09.514Z,8.10
2022-11-15T09:31:36.162Z,8.10
2022-11-15T09:34:02.796Z,8.10
2022-11-15T09:36:29.429Z,8.10
2022-11-15T09:38:56.276Z,8.10
2022-11-15T09:41:23.148Z,8.10
2022-11-15T09:43:49.861Z,8.10
2022-11-15T09:46:16.441Z,8.10
2022-11-15T09:48:43.058Z,8.10
2022-11-15T09:51:09.904Z,8.10
2022-11-15T09:54:23.726Z,8.20
2022-11-15T09:56:23.162Z,8.20
2022-11-15T09:58:49.818Z,8.20
2022-11-15T10:01:16.483Z,8.10
2022-11-15T10:03:43.160Z,8.20
2022-11-15T10:06:09.806Z,8.20
2022-11-15T10:08:36.770Z,8.20
2022-11-15T10:11:36.058Z,8.20
2022-11-15T10:13:50.250Z,8.20
2022-11-15T10:16:16.899Z,8.20
2022-11-15T10:18:43.524Z,8.20
2022-11-15T10:21:10.374Z,8.20
2022-11-15T10:23:36.999Z,8.20
2022-11-15T10:26:06.842Z,8.20
2022-11-15T10:28:34.120Z,8.20
2022-11-15T10:31:01.142Z,8.20
2022-11-15T10:33:27.785Z,8.20
2022-11-15T10:35:54.622Z,8.20
2022-11-15T10:38:21.299Z,8.20
2022-11-15T10:40:47.935Z,8.20
2022-11-15T10:43:14.573Z,8.20
2022-11-15T10:45:41.412Z,8.20
2022-11-15T10:48:08.048Z,8.20
2022-11-15T10:50:34.677Z,8.20
2022-11-15T10:53:01.317Z,8.20
2022-11-15T10:55:27.967Z,8.20
2022-11-15T10:57:54.588Z,8.20
2022-11-15T11:00:21.235Z,8.20
2022-11-15T11:02:48.087Z,8.20
2022-11-15T11:05:14.705Z,8.20
2022-11-15T11:07:41.790Z,8.20
2022-11-15T11:10:28.914Z,8.20
2022-11-15T11:12:55.004Z,8.20
2022-11-15T11:15:21.625Z,8.20
2022-11-15T11:17:48.238Z,8.20
2022-11-15T11:20:14.931Z,8.20
2022-11-15T11:22:41.604Z,8.20
2022-11-15T11:25:08.458Z,8.20
2022-11-15T11:27:35.100Z,8.20
2022-11-15T11:30:01.950Z,8.20
2022-11-15T11:32:28.569Z,8.20
2022-11-15T11:34:55.205Z,8.20
2022-11-15T11:37:22.052Z,8.20
2022-11-15T11:39:48.888Z,8.20
2022-11-15T11:42:15.514Z,8.20
2022-11-15T11:44:42.149Z,8.20
2022-11-15T11:47:08.768Z,8.20
2022-11-15T11:49:35.411Z,8.20
2022-11-15T11:52:02.257Z,8.20
2022-11-15T11:54:29.207Z,8.20
2022-11-15T11:56:55.831Z,8.20
2022-11-15T11:59:22.477Z,8.30
2022-11-15T12:01:49.196Z,8.20
2022-11-15T12:04:16.109Z,8.20
2022-11-15T12:06:42.727Z,8.20
2022-11-15T12:09:09.371Z,8.20
2022-11-15T12:11:36.014Z,8.30
2022-11-15T12:14:02.664Z,8.20
2022-11-15T12:16:29.291Z,8.30
2022-11-15T12:18:55.927Z,8.30
2022-11-15T12:21:28.085Z,8.30
2022-11-15T12:23:55.459Z,8.30
2022-11-15T12:26:22.116Z,8.30
2022-11-15T12:29:04.800Z,8.30
2022-11-15T12:31:33.404Z,8.30
2022-11-15T12:34:05.877Z,8.30
2022-11-15T12:36:34.044Z,8.30
2022-11-15T12:39:00.876Z,8.30
2022-11-15T12:41:27.487Z,8.30
2022-11-15T12:43:54.158Z,8.30
2022-11-15T12:46:20.806Z,8.30
2022-11-15T12:48:47.670Z,8.30
2022-11-15T12:51:14.516Z,8.30
2022-11-15T12:53:41.176Z,8.40
2022-11-15T12:56:07.818Z,8.40
2022-11-15T12:58:34.805Z,8.50
2022-11-15T13:01:01.713Z,8.50
2022-11-15T13:03:28.378Z,8.50
2022-11-15T13:05:55.207Z,8.50
2022-11-15T13:08:21.849Z,8.50
2022-11-15T13:10:48.492Z,8.60
2022-11-15T13:13:15.130Z,8.60
2022-11-15T13:15:43.259Z,8.50
2022-11-15T13:18:10.297Z,8.50
2022-11-15T13:20:36.931Z,8.50
2022-11-15T13:23:03.830Z,8.50
2022-11-15T13:25:30.471Z,8.50
2022-11-15T13:27:57.309Z,8.50
2022-11-15T13:30:23.943Z,8.40
2022-11-15T13:32:50.572Z,8.50
2022-11-15T13:35:17.203Z,8.40
2022-11-15T13:37:43.845Z,8.40
2022-11-15T13:40:10.509Z,8.40
2022-11-15T13:42:40.555Z,8.40
2022-11-15T13:45:09.705Z,8.40
2022-11-15T13:47:36.340Z,8.40
2022-11-15T13:50:03.365Z,8.40
2022-11-15T13:52:31.052Z,8.40
2022-11-15T13:54:57.738Z,8.40
2022-11-15T13:57:24.388Z,8.40
2022-11-15T13:59:51.221Z,8.40
2022-11-15T14:02:18.054Z,8.30
2022-11-15T14:04:44.881Z,8.30
2022-11-15T14:07:11.565Z,8.40
2022-11-15T14:09:38.224Z,8.40
2022-11-15T14:12:05.083Z,8.30
2022-11-15T14:14:31.706Z,8.30
2022-11-15T14:16:58.335Z,8.40
2022-11-15T14:19:24.989Z,8.30
2022-11-15T14:21:51.621Z,8.30
2022-11-15T14:24:18.633Z,8.30
2022-11-15T14:26:45.282Z,8.30
2022-11-15T14:29:11.917Z,8.30
2022-11-15T14:31:43.535Z,8.30
2022-11-15T14:34:10.468Z,8.30
2022-11-15T14:36:37.087Z,8.30
2022-11-15T14:39:03.711Z,8.30
2022-11-15T14:41:30.342Z,8.30
2022-11-15T14:43:57.228Z,8.30
2022-11-15T14:46:23.850Z,8.30
2022-11-15T14:48:50.465Z,8.30
2022-11-15T14:51:17.111Z,8.30
2022-11-15T14:53:43.753Z,8.30
2022-11-15T14:56:10.612Z,8.30
2022-11-15T14:58:37.239Z,8.30
2022-11-15T15:01:03.877Z,8.30
2022-11-15T15:03:30.590Z,8.30
2022-11-15T15:05:57.241Z,8.30
2022-11-15T15:08:23.862Z,8.30
2022-11-15T15:10:50.495Z,8.30
2022-11-15T15:13:17.433Z,8.30
2022-11-15T15:15:44.070Z,8.30
2022-11-15T15:18:10.826Z,8.30
2022-11-15T15:20:37.467Z,8.30
2022-11-15T15:23:04.088Z,8.30
2022-11-15T15:25:30.942Z,8.30
2022-11-15T15:27:57.593Z,8.30
2022-11-15T15:30:24.260Z,8.30
2022-11-15T15:32:50.911Z,8.30
2022-11-15T15:35:17.544Z,8.30
2022-11-15T15:37:44.390Z,8.30
2022-11-15T15:40:11.015Z,8.30
2022-11-15T15:42:37.638Z,8.30
2022-11-15T15:45:04.281Z,8.30
2022-11-15T15:47:31.133Z,8.20
2022-11-15T15:49:57.772Z,8.30
2022-11-15T15:52:24.412Z,8.30
2022-11-15T15:54:51.037Z,8.30
2022-11-15T15:57:17.682Z,8.30
2022-11-15T15:59:44.542Z,8.30
2022-11-15T16:02:11.188Z,8.20
2022-11-15T16:04:38.100Z,8.30
2022-11-15T16:07:04.769Z,8.30
2022-11-15T16:09:31.640Z,8.30
2022-11-15T16:11:58.502Z,8.20
2022-11-15T16:14:25.362Z,8.30
2022-11-15T16:16:52.010Z,8.20
2022-11-15T16:19:18.647Z,8.30
2022-11-15T16:21:45.681Z,8.20
2022-11-15T16:24:12.335Z,8.20
2022-11-15T16:26:38.978Z,8.20
2022-11-15T16:29:05.599Z,8.20
2022-11-15T16:31:32.214Z,8.20
2022-11-15T16:33:58.862Z,8.20
2022-11-15T16:36:30.004Z,8.20
2022-11-15T16:38:57.570Z,8.20
2022-11-15T16:41:24.184Z,8.20
2022-11-15T16:43:50.809Z,8.20
2022-11-15T16:46:17.468Z,8.20
2022-11-15T16:48:44.086Z,8.20
2022-11-15T16:51:10.719Z,8.20
2022-11-15T16:53:37.561Z,8.20
2022-11-15T16:56:04.390Z,8.20
2022-11-15T16:58:31.306Z,8.20
2022-11-15T17:00:58.206Z,8.20
2022-11-15T17:03:25.062Z,8.20
2022-11-15T17:05:51.698Z,8.20
2022-11-15T17:08:18.341Z,8.20
2022-11-15T17:10:44.959Z,8.20
2022-11-15T17:13:11.591Z,8.20
2022-11-15T17:15:38.630Z,8.20
2022-11-15T17:18:05.285Z,8.20
2022-11-15T17:20:31.920Z,8.20
2022-11-15T17:22:58.562Z,8.20
2022-11-15T17:25:25.413Z,8.20
2022-11-15T17:27:52.035Z,8.20
2022-11-15T17:30:18.908Z,8.20
2022-11-15T17:32:45.543Z,8.20
2022-11-15T17:35:15.406Z,8.20
2022-11-15T17:37:42.566Z,8.20
2022-11-15T17:40:09.216Z,8.20
2022-11-15T17:42:35.852Z,8.20
2022-11-15T17:45:08.124Z,8.20
2022-11-15T17:47:36.442Z,8.20
2022-11-15T17:50:03.266Z,8.20
2022-11-15T17:52:29.920Z,8.20
2022-11-15T17:54:56.552Z,8.20
2022-11-15T17:57:23.183Z,8.20
2022-11-15T17:59:49.820Z,8.20
2022-11-15T18:02:16.449Z,8.20
2022-11-15T18:04:43.271Z,8.20
2022-11-15T18:07:09.963Z,8.20
2022-11-15T18:09:36.662Z,8.20
2022-11-15T18:12:03.289Z,8.20
2022-11-15T18:14:29.929Z,8.20
2022-11-15T18:16:56.757Z,8.20
2022-11-15T18:19:23.398Z,8.20
2022-11-15T18:21:50.037Z,8.20
2022-11-15T18:24:16.681Z,8.20
2022-11-15T18:26:43.552Z,8.20
2022-11-15T18:29:10.196Z,8.20
2022-11-15T18:31:37.508Z,8.20
2022-11-15T18:34:04.144Z,8.20
2022-11-15T18:36:30.868Z,8.20
2022-11-15T18:38:57.754Z,8.10
2022-11-15T18:41:24.385Z,8.20
2022-11-15T18:43:51.032Z,8.20
2022-11-15T18:46:17.880Z,8.20
2022-11-15T18:48:44.736Z,8.20
2022-11-15T18:51:11.385Z,8.20
2022-11-15T18:53:38.232Z,8.20
2022-11-15T18:56:04.848Z,8.20
2022-11-15T18:58:31.693Z,8.20
2022-11-15T19:00:58.404Z,8.20
2022-11-15T19:03:25.051Z,8.20
2022-11-15T19:05:51.675Z,8.20
2022-11-15T19:08:18.287Z,8.20
2022-11-15T19:10:45.448Z,8.20
2022-11-15T19:13:12.308Z,8.10
2022-11-15T19:15:38.932Z,8.20
2022-11-15T19:18:05.543Z,8.20
2022-11-15T19:20:32.187Z,8.20
2022-11-15T19:22:58.808Z,8.20
2022-11-15T19:25:25.647Z,8.20
2022-11-15T19:27:52.289Z,8.20
2022-11-15T19:30:18.913Z,8.20
2022-11-15T19:32:45.548Z,8.20
2022-11-15T19:35:12.384Z,8.20
2022-11-15T19:37:39.031Z,8.20
2022-11-15T19:40:05.707Z,8.20
2022-11-15T19:42:32.329Z,8.20
2022-11-15T19:44:58.970Z,8.20
2022-11-15T19:47:26.316Z,8.20
2022-11-15T19:49:52.968Z,8.20
2022-11-15T19:52:19.588Z,8.20
2022-11-15T19:54:46.197Z,8.20
2022-11-15T19:57:12.837Z,8.20
2022-11-15T19:59:39.732Z,8.20
2022-11-15T20:02:06.356Z,8.20
2022-11-15T20:04:32.972Z,8.20
2022-11-15T20:06:59.715Z,8.20
2022-11-15T20:09:26.391Z,8.10
2022-11-15T20:11:53.002Z,8.10
2022-11-15T20:14:19.623Z,8.20
2022-11-15T20:16:50.126Z,8.20
2022-11-15T20:19:19.630Z,8.10
2022-11-15T20:21:46.273Z,8.20
2022-11-15T20:24:12.911Z,8.10
2022-11-15T20:26:39.747Z,8.20
2022-11-15T20:29:06.369Z,8.10
2022-11-15T20:31:33.020Z,8.10
2022-11-15T20:33:59.639Z,8.10
2022-11-15T20:36:26.263Z,8.10
2022-11-15T20:38:53.102Z,8.20
2022-11-15T20:41:19.736Z,8.10
2022-11-15T20:43:46.587Z,8.10
2022-11-15T20:46:13.526Z,8.10
2022-11-15T20:48:40.180Z,8.10
2022-11-15T20:51:06.838Z,8.10
2022-11-15T20:53:33.670Z,8.10
2022-11-15T20:56:00.280Z,8.10
2022-11-15T20:58:26.892Z,8.20
2022-11-15T21:00:53.605Z,8.10
2022-11-15T21:03:20.532Z,8.10
2022-11-15T21:05:47.175Z,8.10
2022-11-15T21:08:13.810Z,8.10
2022-11-15T21:10:40.454Z,8.20
2022-11-15T21:13:07.088Z,8.10
2022-11-15T21:15:33.727Z,8.10
2022-11-15T21:18:00.349Z,8.10
2022-11-15T21:20:26.996Z,8.10
2022-11-15T21:22:53.865Z,8.10
2022-11-15T21:25:20.507Z,8.10
2022-11-15T21:27:47.185Z,8.10
2022-11-15T21:30:13.850Z,8.10
2022-11-15T21:32:40.474Z,8.10
2022-11-15T21:35:07.305Z,8.20
2022-11-15T21:37:33.948Z,8.10
2022-11-15T21:40:03.703Z,8.10
2022-11-15T21:42:30.334Z,8.10
2022-11-15T21:44:56.992Z,8.10
2022-11-15T21:47:23.628Z,8.10
2022-11-15T21:49:50.489Z,8.10
2022-11-15T21:52:17.104Z,8.10
2022-11-15T21:54:43.737Z,8.20
2022-11-15T21:57:10.378Z,8.10
2022-11-15T21:59:37.012Z,8.20
2022-11-15T22:02:03.844Z,8.10
2022-11-15T22:04:30.482Z,8.10
2022-11-15T22:06:57.353Z,8.10
2022-11-15T22:09:24.747Z,8.10
2022-11-15T22:11:51.604Z,8.10
2022-11-15T22:14:18.249Z,8.10
2022-11-15T22:16:44.868Z,8.10
2022-11-15T22:19:11.507Z,8.10
2022-11-15T22:21:38.132Z,8.10
2022-11-15T22:24:04.764Z,8.20
2022-11-15T22:26:31.407Z,8.10
2022-11-15T22:28:58.057Z,8.10
2022-11-15T22:31:24.700Z,8.10
2022-11-15T22:33:51.328Z,8.20
2022-11-15T22:36:17.974Z,8.10
2022-11-15T22:38:44.801Z,8.10
2022-11-15T22:41:11.444Z,8.10
2022-11-15T22:43:38.093Z,8.10
2022-11-15T22:46:04.725Z,8.20
2022-11-15T22:48:31.409Z,8.10
2022-11-15T22:50:58.311Z,8.10
2022-11-15T22:53:25.137Z,8.10
2022-11-15T22:55:51.758Z,8.20
2022-11-15T22:58:18.607Z,8.10
2022-11-15T23:00:45.236Z,8.10
2022-11-15T23:03:11.931Z,8.10
2022-11-15T23:05:38.589Z,8.20
2022-11-15T23:08:05.204Z,8.20
2022-11-15T23:10:32.058Z,8.10
2022-11-15T23:12:59.079Z,8.10
2022-11-15T23:15:29.499Z,8.10
2022-11-15T23:17:58.961Z,8.10
2022-11-15T23:20:42.454Z,8.10
2022-11-15T23:23:09.857Z,8.10
2022-11-15T23:25:36.985Z,8.10
2022-11-15T23:28:03.625Z,8.10
2022-11-15T23:30:30.471Z,8.10
2022-11-15T23:32:57.094Z,8.10
2022-11-15T23:35:23.923Z,8.10
2022-11-15T23:37:50.764Z,8.10
2022-11-15T23:40:17.592Z,8.10
2022-11-15T23:42:45.040Z,8.10
2022-11-15T23:45:11.691Z,8.20
2022-11-15T23:47:38.527Z,8.20
2022-11-15T23:50:05.157Z,8.20
2022-11-15T23:52:32.017Z,8.10
2022-11-15T23:54:58.646Z,8.10
2022-11-15T23:57:25.486Z,8.20
2022-11-15T23:59:52.121Z,8.20
